sensor_id;sensor_type;location;lat;lon;timestamp;P1;durP1;ratioP1;P2;durP2;ratioP2
15637;SDS011;26604;53.596;10.042;2022-07-15T00:01:05;9.13;;;1.20;;
15637;SDS011;26604;53.596;10.042;2022-07-15T00:03:32;4.53;;;1.00;;
15637;SDS011;26604;53.596;10.042;2022-07-15T00:05:59;7.60;;;1.30;;
15637;SDS011;26604;53.596;10.042;2022-07-15T00:08:26;3.67;;;1.20;;
15637;SDS011;26604;53.596;10.042;2022-07-15T00:10:53;4.03;;;1.00;;
15637;SDS011;26604;53.596;10.042;2022-07-15T00:13:22;4.50;;;1.23;;
15637;SDS011;26604;53.596;10.042;2022-07-15T00:15:51;4.53;;;0.80;;
15637;SDS011;26604;53.596;10.042;2022-07-15T00:18:18;4.00;;;1.02;;
15637;SDS011;26604;53.596;10.042;2022-07-15T00:20:45;5.88;;;1.52;;
15637;SDS011;26604;53.596;10.042;2022-07-15T00:23:12;6.53;;;1.33;;
15637;SDS011;26604;53.596;10.042;2022-07-15T00:25:39;6.13;;;1.48;;
15637;SDS011;26604;53.596;10.042;2022-07-15T00:28:06;4.65;;;1.10;;
15637;SDS011;26604;53.596;10.042;2022-07-15T00:30:36;6.78;;;1.40;;
15637;SDS011;26604;53.596;10.042;2022-07-15T00:33:05;6.22;;;1.25;;
15637;SDS011;26604;53.596;10.042;2022-07-15T00:35:33;3.42;;;1.30;;
15637;SDS011;26604;53.596;10.042;2022-07-15T00:38:01;9.25;;;1.60;;
15637;SDS011;26604;53.596;10.042;2022-07-15T00:40:28;5.63;;;1.20;;
15637;SDS011;26604;53.596;10.042;2022-07-15T00:42:56;5.30;;;1.10;;
15637;SDS011;26604;53.596;10.042;2022-07-15T00:45:24;4.93;;;1.02;;
15637;SDS011;26604;53.596;10.042;2022-07-15T00:47:53;7.88;;;1.73;;
15637;SDS011;26604;53.596;10.042;2022-07-15T00:50:22;6.10;;;1.25;;
15637;SDS011;26604;53.596;10.042;2022-07-15T00:52:51;7.97;;;1.13;;
15637;SDS011;26604;53.596;10.042;2022-07-15T00:55:21;4.00;;;1.05;;
15637;SDS011;26604;53.596;10.042;2022-07-15T00:57:49;3.60;;;0.90;;
15637;SDS011;26604;53.596;10.042;2022-07-15T01:00:18;5.35;;;1.20;;
15637;SDS011;26604;53.596;10.042;2022-07-15T01:02:44;3.50;;;0.90;;
15637;SDS011;26604;53.596;10.042;2022-07-15T01:05:17;3.40;;;1.05;;
15637;SDS011;26604;53.596;10.042;2022-07-15T01:07:45;6.05;;;1.23;;
15637;SDS011;26604;53.596;10.042;2022-07-15T01:10:15;5.53;;;1.15;;
15637;SDS011;26604;53.596;10.042;2022-07-15T01:12:42;5.53;;;0.80;;
15637;SDS011;26604;53.596;10.042;2022-07-15T01:15:13;6.38;;;1.02;;
15637;SDS011;26604;53.596;10.042;2022-07-15T01:17:41;4.28;;;0.95;;
15637;SDS011;26604;53.596;10.042;2022-07-15T01:20:10;2.80;;;0.95;;
15637;SDS011;26604;53.596;10.042;2022-07-15T01:22:40;5.45;;;1.00;;
15637;SDS011;26604;53.596;10.042;2022-07-15T01:25:07;4.30;;;0.95;;
15637;SDS011;26604;53.596;10.042;2022-07-15T01:27:34;4.63;;;1.00;;
15637;SDS011;26604;53.596;10.042;2022-07-15T01:30:03;5.70;;;0.90;;
15637;SDS011;26604;53.596;10.042;2022-07-15T01:32:30;5.93;;;0.98;;
15637;SDS011;26604;53.596;10.042;2022-07-15T01:34:57;5.15;;;0.80;;
15637;SDS011;26604;53.596;10.042;2022-07-15T01:37:24;4.55;;;0.98;;
15637;SDS011;26604;53.596;10.042;2022-07-15T01:39:53;6.47;;;1.10;;
15637;SDS011;26604;53.596;10.042;2022-07-15T01:42:20;2.97;;;0.93;;
15637;SDS011;26604;53.596;10.042;2022-07-15T01:44:47;4.38;;;0.88;;
15637;SDS011;26604;53.596;10.042;2022-07-15T01:47:14;6.05;;;1.10;;
15637;SDS011;26604;53.596;10.042;2022-07-15T01:49:41;3.88;;;0.80;;
15637;SDS011;26604;53.596;10.042;2022-07-15T01:52:08;4.57;;;1.13;;
15637;SDS011;26604;53.596;10.042;2022-07-15T01:54:35;4.72;;;0.98;;
15637;SDS011;26604;53.596;10.042;2022-07-15T01:57:04;2.33;;;0.80;;
15637;SDS011;26604;53.596;10.042;2022-07-15T01:59:31;2.63;;;0.80;;
15637;SDS011;26604;53.596;10.042;2022-07-15T02:01:58;4.82;;;0.90;;
15637;SDS011;26604;53.596;10.042;2022-07-15T02:04:26;3.50;;;0.60;;
15637;SDS011;26604;53.596;10.042;2022-07-15T02:06:53;2.60;;;0.70;;
15637;SDS011;26604;53.596;10.042;2022-07-15T02:09:21;4.28;;;1.70;;
15637;SDS011;26604;53.596;10.042;2022-07-15T02:11:48;5.22;;;1.35;;
15637;SDS011;26604;53.596;10.042;2022-07-15T02:14:16;5.25;;;0.80;;
15637;SDS011;26604;53.596;10.042;2022-07-15T02:16:43;2.92;;;0.75;;
15637;SDS011;26604;53.596;10.042;2022-07-15T02:19:10;5.47;;;0.75;;
15637;SDS011;26604;53.596;10.042;2022-07-15T02:21:36;6.50;;;1.30;;
15637;SDS011;26604;53.596;10.042;2022-07-15T02:24:04;3.35;;;0.80;;
15637;SDS011;26604;53.596;10.042;2022-07-15T02:26:31;5.18;;;0.75;;
15637;SDS011;26604;53.596;10.042;2022-07-15T02:28:58;5.75;;;0.80;;
15637;SDS011;26604;53.596;10.042;2022-07-15T02:31:27;1.95;;;0.60;;
15637;SDS011;26604;53.596;10.042;2022-07-15T02:33:54;6.53;;;0.75;;
15637;SDS011;26604;53.596;10.042;2022-07-15T02:36:21;4.80;;;0.80;;
15637;SDS011;26604;53.596;10.042;2022-07-15T02:38:48;3.00;;;0.70;;
15637;SDS011;26604;53.596;10.042;2022-07-15T02:41:15;3.72;;;1.13;;
15637;SDS011;26604;53.596;10.042;2022-07-15T02:43:42;3.45;;;0.90;;
15637;SDS011;26604;53.596;10.042;2022-07-15T02:46:10;3.25;;;0.75;;
15637;SDS011;26604;53.596;10.042;2022-07-15T02:48:38;5.40;;;0.75;;
15637;SDS011;26604;53.596;10.042;2022-07-15T02:51:05;2.75;;;0.68;;
15637;SDS011;26604;53.596;10.042;2022-07-15T02:53:33;4.57;;;0.80;;
15637;SDS011;26604;53.596;10.042;2022-07-15T02:56:01;3.75;;;1.10;;
15637;SDS011;26604;53.596;10.042;2022-07-15T02:58:29;2.17;;;0.57;;
15637;SDS011;26604;53.596;10.042;2022-07-15T03:00:56;4.25;;;1.00;;
15637;SDS011;26604;53.596;10.042;2022-07-15T03:03:23;1.88;;;0.60;;
15637;SDS011;26604;53.596;10.042;2022-07-15T03:05:54;2.30;;;0.65;;
15637;SDS011;26604;53.596;10.042;2022-07-15T03:08:21;2.08;;;0.73;;
15637;SDS011;26604;53.596;10.042;2022-07-15T03:10:49;0.82;;;0.50;;
15637;SDS011;26604;53.596;10.042;2022-07-15T03:13:16;3.78;;;0.70;;
15637;SDS011;26604;53.596;10.042;2022-07-15T03:15:42;2.13;;;0.70;;
15637;SDS011;26604;53.596;10.042;2022-07-15T03:18:09;2.97;;;0.77;;
15637;SDS011;26604;53.596;10.042;2022-07-15T03:20:37;2.35;;;0.70;;
15637;SDS011;26604;53.596;10.042;2022-07-15T03:23:05;2.28;;;0.68;;
15637;SDS011;26604;53.596;10.042;2022-07-15T03:25:32;5.25;;;1.00;;
15637;SDS011;26604;53.596;10.042;2022-07-15T03:27:58;3.67;;;0.68;;
15637;SDS011;26604;53.596;10.042;2022-07-15T03:30:25;3.13;;;0.45;;
15637;SDS011;26604;53.596;10.042;2022-07-15T03:32:53;4.25;;;0.60;;
15637;SDS011;26604;53.596;10.042;2022-07-15T03:35:20;3.38;;;0.70;;
15637;SDS011;26604;53.596;10.042;2022-07-15T03:37:47;3.88;;;1.00;;
15637;SDS011;26604;53.596;10.042;2022-07-15T03:40:15;5.00;;;1.02;;
15637;SDS011;26604;53.596;10.042;2022-07-15T03:42:42;3.95;;;0.70;;
15637;SDS011;26604;53.596;10.042;2022-07-15T03:45:09;2.30;;;0.88;;
15637;SDS011;26604;53.596;10.042;2022-07-15T03:47:36;3.65;;;0.60;;
15637;SDS011;26604;53.596;10.042;2022-07-15T03:50:03;3.65;;;1.13;;
15637;SDS011;26604;53.596;10.042;2022-07-15T03:52:31;4.82;;;0.68;;
15637;SDS011;26604;53.596;10.042;2022-07-15T03:54:58;4.30;;;0.80;;
15637;SDS011;26604;53.596;10.042;2022-07-15T03:57:26;4.53;;;0.77;;
15637;SDS011;26604;53.596;10.042;2022-07-15T03:59:53;4.55;;;0.70;;
15637;SDS011;26604;53.596;10.042;2022-07-15T04:02:20;3.95;;;1.08;;
15637;SDS011;26604;53.596;10.042;2022-07-15T04:04:47;3.05;;;0.90;;
15637;SDS011;26604;53.596;10.042;2022-07-15T04:07:14;1.65;;;0.60;;
15637;SDS011;26604;53.596;10.042;2022-07-15T04:09:41;4.40;;;0.57;;
15637;SDS011;26604;53.596;10.042;2022-07-15T04:12:08;3.05;;;0.70;;
15637;SDS011;26604;53.596;10.042;2022-07-15T04:14:36;3.92;;;0.93;;
15637;SDS011;26604;53.596;10.042;2022-07-15T04:17:03;4.13;;;0.70;;
15637;SDS011;26604;53.596;10.042;2022-07-15T04:19:30;2.45;;;0.63;;
15637;SDS011;26604;53.596;10.042;2022-07-15T04:21:57;3.53;;;0.70;;
15637;SDS011;26604;53.596;10.042;2022-07-15T04:24:24;2.10;;;0.60;;
15637;SDS011;26604;53.596;10.042;2022-07-15T04:26:51;3.10;;;1.42;;
15637;SDS011;26604;53.596;10.042;2022-07-15T04:29:18;3.28;;;0.90;;
15637;SDS011;26604;53.596;10.042;2022-07-15T04:31:46;2.60;;;0.68;;
15637;SDS011;26604;53.596;10.042;2022-07-15T04:34:13;4.57;;;0.80;;
15637;SDS011;26604;53.596;10.042;2022-07-15T04:36:40;4.65;;;0.70;;
15637;SDS011;26604;53.596;10.042;2022-07-15T04:39:07;6.05;;;0.93;;
15637;SDS011;26604;53.596;10.042;2022-07-15T04:41:33;3.65;;;0.85;;
15637;SDS011;26604;53.596;10.042;2022-07-15T04:44:00;1.77;;;0.65;;
15637;SDS011;26604;53.596;10.042;2022-07-15T04:46:27;6.45;;;0.93;;
15637;SDS011;26604;53.596;10.042;2022-07-15T04:48:55;3.17;;;0.73;;
15637;SDS011;26604;53.596;10.042;2022-07-15T04:51:40;3.40;;;0.90;;
15637;SDS011;26604;53.596;10.042;2022-07-15T04:54:06;4.32;;;0.70;;
15637;SDS011;26604;53.596;10.042;2022-07-15T04:56:34;6.35;;;0.65;;
15637;SDS011;26604;53.596;10.042;2022-07-15T04:59:02;4.57;;;1.20;;
15637;SDS011;26604;53.596;10.042;2022-07-15T05:01:29;4.78;;;0.85;;
15637;SDS011;26604;53.596;10.042;2022-07-15T05:03:58;3.97;;;0.73;;
15637;SDS011;26604;53.596;10.042;2022-07-15T05:06:26;2.63;;;0.82;;
15637;SDS011;26604;53.596;10.042;2022-07-15T05:08:53;3.30;;;1.13;;
15637;SDS011;26604;53.596;10.042;2022-07-15T05:11:20;4.75;;;1.48;;
15637;SDS011;26604;53.596;10.042;2022-07-15T05:13:47;7.03;;;1.05;;
15637;SDS011;26604;53.596;10.042;2022-07-15T05:16:13;5.82;;;1.30;;
15637;SDS011;26604;53.596;10.042;2022-07-15T05:18:40;6.55;;;1.38;;
15637;SDS011;26604;53.596;10.042;2022-07-15T05:21:09;7.43;;;1.17;;
15637;SDS011;26604;53.596;10.042;2022-07-15T05:23:36;4.53;;;1.10;;
15637;SDS011;26604;53.596;10.042;2022-07-15T05:26:03;5.25;;;1.75;;
15637;SDS011;26604;53.596;10.042;2022-07-15T05:28:30;6.55;;;1.33;;
15637;SDS011;26604;53.596;10.042;2022-07-15T05:30:57;8.02;;;1.20;;
15637;SDS011;26604;53.596;10.042;2022-07-15T05:33:24;2.42;;;0.93;;
15637;SDS011;26604;53.596;10.042;2022-07-15T05:35:51;5.18;;;1.20;;
15637;SDS011;26604;53.596;10.042;2022-07-15T05:38:19;5.30;;;1.27;;
15637;SDS011;26604;53.596;10.042;2022-07-15T05:40:46;8.43;;;2.08;;
15637;SDS011;26604;53.596;10.042;2022-07-15T05:43:13;6.82;;;1.27;;
15637;SDS011;26604;53.596;10.042;2022-07-15T05:45:40;5.45;;;1.10;;
15637;SDS011;26604;53.596;10.042;2022-07-15T05:48:07;4.68;;;1.25;;
15637;SDS011;26604;53.596;10.042;2022-07-15T05:50:34;11.02;;;1.55;;
15637;SDS011;26604;53.596;10.042;2022-07-15T05:53:00;5.70;;;1.25;;
15637;SDS011;26604;53.596;10.042;2022-07-15T05:55:29;5.00;;;1.13;;
15637;SDS011;26604;53.596;10.042;2022-07-15T05:57:56;3.97;;;0.98;;
15637;SDS011;26604;53.596;10.042;2022-07-15T06:00:23;4.55;;;1.38;;
15637;SDS011;26604;53.596;10.042;2022-07-15T06:02:50;2.72;;;1.42;;
15637;SDS011;26604;53.596;10.042;2022-07-15T06:05:17;5.45;;;1.00;;
15637;SDS011;26604;53.596;10.042;2022-07-15T06:07:44;4.70;;;1.23;;
15637;SDS011;26604;53.596;10.042;2022-07-15T06:10:11;2.65;;;1.25;;
15637;SDS011;26604;53.596;10.042;2022-07-15T06:12:39;5.45;;;0.90;;
15637;SDS011;26604;53.596;10.042;2022-07-15T06:15:07;3.38;;;1.27;;
15637;SDS011;26604;53.596;10.042;2022-07-15T06:17:35;3.55;;;1.30;;
15637;SDS011;26604;53.596;10.042;2022-07-15T06:20:02;4.45;;;1.00;;
15637;SDS011;26604;53.596;10.042;2022-07-15T06:22:29;3.50;;;0.90;;
15637;SDS011;26604;53.596;10.042;2022-07-15T06:24:56;5.85;;;1.13;;
15637;SDS011;26604;53.596;10.042;2022-07-15T06:27:23;4.13;;;0.60;;
15637;SDS011;26604;53.596;10.042;2022-07-15T06:29:51;3.90;;;0.88;;
15637;SDS011;26604;53.596;10.042;2022-07-15T06:32:18;2.95;;;1.10;;
15637;SDS011;26604;53.596;10.042;2022-07-15T06:34:45;4.82;;;1.02;;
15637;SDS011;26604;53.596;10.042;2022-07-15T06:37:12;3.92;;;1.40;;
15637;SDS011;26604;53.596;10.042;2022-07-15T06:39:39;12.07;;;3.83;;
15637;SDS011;26604;53.596;10.042;2022-07-15T06:42:06;50.00;;;23.55;;
15637;SDS011;26604;53.596;10.042;2022-07-15T06:44:33;30.90;;;13.23;;
15637;SDS011;26604;53.596;10.042;2022-07-15T06:47:02;23.58;;;10.95;;
15637;SDS011;26604;53.596;10.042;2022-07-15T06:49:31;21.42;;;11.13;;
15637;SDS011;26604;53.596;10.042;2022-07-15T06:51:59;24.67;;;13.32;;
15637;SDS011;26604;53.596;10.042;2022-07-15T06:54:26;32.03;;;15.65;;
15637;SDS011;26604;53.596;10.042;2022-07-15T06:56:53;25.10;;;15.40;;
15637;SDS011;26604;53.596;10.042;2022-07-15T06:59:20;23.73;;;13.13;;
15637;SDS011;26604;53.596;10.042;2022-07-15T07:01:47;22.58;;;12.82;;
15637;SDS011;26604;53.596;10.042;2022-07-15T07:04:15;23.30;;;11.98;;
15637;SDS011;26604;53.596;10.042;2022-07-15T07:06:42;22.40;;;12.68;;
15637;SDS011;26604;53.596;10.042;2022-07-15T07:09:09;17.67;;;10.90;;
15637;SDS011;26604;53.596;10.042;2022-07-15T07:11:37;22.73;;;11.40;;
15637;SDS011;26604;53.596;10.042;2022-07-15T07:14:04;19.73;;;10.90;;
15637;SDS011;26604;53.596;10.042;2022-07-15T07:16:31;19.10;;;10.93;;
15637;SDS011;26604;53.596;10.042;2022-07-15T07:18:58;21.40;;;10.07;;
15637;SDS011;26604;53.596;10.042;2022-07-15T07:21:27;18.25;;;9.82;;
15637;SDS011;26604;53.596;10.042;2022-07-15T07:23:54;21.73;;;9.85;;
15637;SDS011;26604;53.596;10.042;2022-07-15T07:26:21;14.18;;;9.15;;
15637;SDS011;26604;53.596;10.042;2022-07-15T07:28:47;17.77;;;8.93;;
15637;SDS011;26604;53.596;10.042;2022-07-15T07:31:14;12.85;;;8.38;;
15637;SDS011;26604;53.596;10.042;2022-07-15T07:33:41;17.50;;;8.55;;
15637;SDS011;26604;53.596;10.042;2022-07-15T07:36:08;16.85;;;8.35;;
15637;SDS011;26604;53.596;10.042;2022-07-15T07:38:36;12.90;;;7.93;;
15637;SDS011;26604;53.596;10.042;2022-07-15T07:41:04;10.50;;;7.03;;
15637;SDS011;26604;53.596;10.042;2022-07-15T07:43:31;11.23;;;6.78;;
15637;SDS011;26604;53.596;10.042;2022-07-15T07:46:00;15.38;;;7.55;;
15637;SDS011;26604;53.596;10.042;2022-07-15T07:48:27;13.80;;;7.18;;
15637;SDS011;26604;53.596;10.042;2022-07-15T07:50:54;11.23;;;6.28;;
15637;SDS011;26604;53.596;10.042;2022-07-15T07:53:21;11.48;;;5.80;;
15637;SDS011;26604;53.596;10.042;2022-07-15T07:55:49;10.77;;;6.45;;
15637;SDS011;26604;53.596;10.042;2022-07-15T07:58:17;11.27;;;5.22;;
15637;SDS011;26604;53.596;10.042;2022-07-15T08:00:45;9.75;;;5.13;;
15637;SDS011;26604;53.596;10.042;2022-07-15T08:03:12;9.85;;;5.38;;
15637;SDS011;26604;53.596;10.042;2022-07-15T08:05:40;10.77;;;4.68;;
15637;SDS011;26604;53.596;10.042;2022-07-15T08:08:11;12.52;;;5.15;;
15637;SDS011;26604;53.596;10.042;2022-07-15T08:10:40;10.23;;;4.45;;
15637;SDS011;26604;53.596;10.042;2022-07-15T08:13:09;9.52;;;3.90;;
15637;SDS011;26604;53.596;10.042;2022-07-15T08:15:38;6.63;;;3.72;;
15637;SDS011;26604;53.596;10.042;2022-07-15T08:18:05;9.48;;;4.43;;
15637;SDS011;26604;53.596;10.042;2022-07-15T08:20:32;5.72;;;3.17;;
15637;SDS011;26604;53.596;10.042;2022-07-15T08:23:01;7.18;;;3.60;;
15637;SDS011;26604;53.596;10.042;2022-07-15T08:25:29;6.30;;;3.65;;
15637;SDS011;26604;53.596;10.042;2022-07-15T08:27:58;10.02;;;3.13;;
15637;SDS011;26604;53.596;10.042;2022-07-15T08:30:26;6.30;;;3.20;;
15637;SDS011;26604;53.596;10.042;2022-07-15T08:32:54;6.43;;;2.88;;
15637;SDS011;26604;53.596;10.042;2022-07-15T08:35:22;6.45;;;2.97;;
15637;SDS011;26604;53.596;10.042;2022-07-15T08:37:50;4.57;;;2.25;;
15637;SDS011;26604;53.596;10.042;2022-07-15T08:40:17;8.27;;;2.65;;
15637;SDS011;26604;53.596;10.042;2022-07-15T08:42:44;11.23;;;3.15;;
15637;SDS011;26604;53.596;10.042;2022-07-15T08:45:13;4.50;;;2.40;;
15637;SDS011;26604;53.596;10.042;2022-07-15T08:47:43;5.70;;;2.38;;
15637;SDS011;26604;53.596;10.042;2022-07-15T08:50:13;5.97;;;2.00;;
15637;SDS011;26604;53.596;10.042;2022-07-15T08:52:41;7.50;;;2.67;;
15637;SDS011;26604;53.596;10.042;2022-07-15T08:55:09;5.13;;;2.38;;
15637;SDS011;26604;53.596;10.042;2022-07-15T08:57:36;5.32;;;1.77;;
15637;SDS011;26604;53.596;10.042;2022-07-15T09:00:04;5.53;;;2.03;;
15637;SDS011;26604;53.596;10.042;2022-07-15T09:02:36;3.50;;;1.70;;
15637;SDS011;26604;53.596;10.042;2022-07-15T09:05:19;7.43;;;1.90;;
15637;SDS011;26604;53.596;10.042;2022-07-15T09:07:52;4.85;;;1.90;;
15637;SDS011;26604;53.596;10.042;2022-07-15T09:10:21;2.58;;;1.67;;
15637;SDS011;26604;53.596;10.042;2022-07-15T09:12:49;4.30;;;1.63;;
15637;SDS011;26604;53.596;10.042;2022-07-15T09:15:29;3.78;;;1.67;;
15637;SDS011;26604;53.596;10.042;2022-07-15T09:20:48;4.45;;;1.60;;
15637;SDS011;26604;53.596;10.042;2022-07-15T09:23:16;2.45;;;1.65;;
15637;SDS011;26604;53.596;10.042;2022-07-15T09:25:48;2.08;;;1.17;;
15637;SDS011;26604;53.596;10.042;2022-07-15T09:28:16;3.45;;;1.40;;
15637;SDS011;26604;53.596;10.042;2022-07-15T09:30:43;2.15;;;1.20;;
15637;SDS011;26604;53.596;10.042;2022-07-15T09:33:29;1.92;;;1.13;;
15637;SDS011;26604;53.596;10.042;2022-07-15T09:36:10;2.80;;;1.48;;
15637;SDS011;26604;53.596;10.042;2022-07-15T09:38:43;2.67;;;1.27;;
15637;SDS011;26604;53.596;10.042;2022-07-15T09:41:14;1.55;;;1.00;;
15637;SDS011;26604;53.596;10.042;2022-07-15T09:43:49;3.13;;;1.02;;
15637;SDS011;26604;53.596;10.042;2022-07-15T09:46:17;2.22;;;1.25;;
15637;SDS011;26604;53.596;10.042;2022-07-15T09:48:46;2.53;;;1.30;;
15637;SDS011;26604;53.596;10.042;2022-07-15T09:51:16;4.57;;;1.17;;
15637;SDS011;26604;53.596;10.042;2022-07-15T09:53:44;3.17;;;0.95;;
15637;SDS011;26604;53.596;10.042;2022-07-15T09:56:12;4.88;;;1.08;;
15637;SDS011;26604;53.596;10.042;2022-07-15T09:58:42;5.65;;;1.17;;
15637;SDS011;26604;53.596;10.042;2022-07-15T10:01:10;2.65;;;1.08;;
15637;SDS011;26604;53.596;10.042;2022-07-15T10:03:38;2.53;;;0.93;;
15637;SDS011;26604;53.596;10.042;2022-07-15T10:06:05;3.33;;;0.93;;
15637;SDS011;26604;53.596;10.042;2022-07-15T10:08:34;1.75;;;0.90;;
15637;SDS011;26604;53.596;10.042;2022-07-15T10:11:04;2.22;;;1.02;;
15637;SDS011;26604;53.596;10.042;2022-07-15T10:13:42;3.13;;;1.10;;
15637;SDS011;26604;53.596;10.042;2022-07-15T10:16:59;3.28;;;1.00;;
15637;SDS011;26604;53.596;10.042;2022-07-15T10:19:50;3.30;;;1.02;;
15637;SDS011;26604;53.596;10.042;2022-07-15T10:22:41;5.70;;;1.20;;
15637;SDS011;26604;53.596;10.042;2022-07-15T10:25:20;2.83;;;0.82;;
15637;SDS011;26604;53.596;10.042;2022-07-15T10:28:00;4.53;;;0.60;;
15637;SDS011;26604;53.596;10.042;2022-07-15T10:30:30;3.95;;;0.70;;
15637;SDS011;26604;53.596;10.042;2022-07-15T10:33:11;4.25;;;1.00;;
15637;SDS011;26604;53.596;10.042;2022-07-15T10:35:43;5.07;;;0.80;;
15637;SDS011;26604;53.596;10.042;2022-07-15T10:38:25;4.30;;;0.80;;
15637;SDS011;26604;53.596;10.042;2022-07-15T10:41:01;6.93;;;1.13;;
15637;SDS011;26604;53.596;10.042;2022-07-15T10:43:39;2.03;;;0.60;;
15637;SDS011;26604;53.596;10.042;2022-07-15T10:52:02;3.17;;;0.70;;
15637;SDS011;26604;53.596;10.042;2022-07-15T10:54:37;1.60;;;0.70;;
15637;SDS011;26604;53.596;10.042;2022-07-15T10:57:10;7.32;;;0.60;;
15637;SDS011;26604;53.596;10.042;2022-07-15T10:59:47;3.25;;;0.77;;
15637;SDS011;26604;53.596;10.042;2022-07-15T11:02:19;4.63;;;1.33;;
15637;SDS011;26604;53.596;10.042;2022-07-15T11:04:47;3.85;;;0.63;;
15637;SDS011;26604;53.596;10.042;2022-07-15T11:07:28;2.92;;;0.50;;
15637;SDS011;26604;53.596;10.042;2022-07-15T11:09:58;3.75;;;0.80;;
15637;SDS011;26604;53.596;10.042;2022-07-15T11:12:59;1.50;;;0.40;;
15637;SDS011;26604;53.596;10.042;2022-07-15T11:15:30;1.85;;;0.40;;
15637;SDS011;26604;53.596;10.042;2022-07-15T11:17:58;3.33;;;0.57;;
15637;SDS011;26604;53.596;10.042;2022-07-15T11:20:35;3.85;;;0.57;;
15637;SDS011;26604;53.596;10.042;2022-07-15T11:23:04;3.10;;;0.70;;
15637;SDS011;26604;53.596;10.042;2022-07-15T11:25:33;3.72;;;0.70;;
15637;SDS011;26604;53.596;10.042;2022-07-15T11:28:04;5.47;;;0.63;;
15637;SDS011;26604;53.596;10.042;2022-07-15T11:30:34;2.80;;;0.70;;
15637;SDS011;26604;53.596;10.042;2022-07-15T11:33:04;1.45;;;0.60;;
15637;SDS011;26604;53.596;10.042;2022-07-15T11:35:41;3.33;;;0.65;;
15637;SDS011;26604;53.596;10.042;2022-07-15T11:38:14;5.97;;;0.80;;
15637;SDS011;26604;53.596;10.042;2022-07-15T11:40:42;2.67;;;0.68;;
15637;SDS011;26604;53.596;10.042;2022-07-15T11:43:30;3.20;;;0.60;;
15637;SDS011;26604;53.596;10.042;2022-07-15T11:46:15;3.30;;;0.73;;
15637;SDS011;26604;53.596;10.042;2022-07-15T11:48:42;5.00;;;0.70;;
15637;SDS011;26604;53.596;10.042;2022-07-15T11:51:09;3.03;;;0.50;;
15637;SDS011;26604;53.596;10.042;2022-07-15T11:53:37;2.47;;;0.70;;
15637;SDS011;26604;53.596;10.042;2022-07-15T11:56:07;2.58;;;0.40;;
15637;SDS011;26604;53.596;10.042;2022-07-15T11:58:37;2.83;;;0.68;;
15637;SDS011;26604;53.596;10.042;2022-07-15T12:01:06;4.35;;;0.40;;
15637;SDS011;26604;53.596;10.042;2022-07-15T12:03:35;2.72;;;0.60;;
15637;SDS011;26604;53.596;10.042;2022-07-15T12:06:07;3.80;;;0.80;;
15637;SDS011;26604;53.596;10.042;2022-07-15T12:08:40;2.33;;;0.70;;
15637;SDS011;26604;53.596;10.042;2022-07-15T12:11:20;4.53;;;0.65;;
15637;SDS011;26604;53.596;10.042;2022-07-15T12:13:54;2.47;;;0.43;;
15637;SDS011;26604;53.596;10.042;2022-07-15T12:16:23;3.67;;;0.60;;
15637;SDS011;26604;53.596;10.042;2022-07-15T12:21:21;3.47;;;0.50;;
15637;SDS011;26604;53.596;10.042;2022-07-15T12:23:59;2.38;;;0.68;;
15637;SDS011;26604;53.596;10.042;2022-07-15T12:26:32;1.65;;;0.50;;
15637;SDS011;26604;53.596;10.042;2022-07-15T12:29:02;2.95;;;0.80;;
15637;SDS011;26604;53.596;10.042;2022-07-15T12:31:30;3.38;;;0.70;;
15637;SDS011;26604;53.596;10.042;2022-07-15T12:33:58;3.72;;;0.82;;
15637;SDS011;26604;53.596;10.042;2022-07-15T12:36:26;4.80;;;0.75;;
15637;SDS011;26604;53.596;10.042;2022-07-15T12:39:07;2.03;;;0.63;;
15637;SDS011;26604;53.596;10.042;2022-07-15T12:41:39;3.55;;;0.70;;
15637;SDS011;26604;53.596;10.042;2022-07-15T12:44:09;4.63;;;0.85;;
15637;SDS011;26604;53.596;10.042;2022-07-15T12:46:53;3.30;;;0.80;;
15637;SDS011;26604;53.596;10.042;2022-07-15T12:49:41;1.75;;;0.40;;
15637;SDS011;26604;53.596;10.042;2022-07-15T12:54:56;4.75;;;0.90;;
15637;SDS011;26604;53.596;10.042;2022-07-15T12:57:29;3.30;;;0.60;;
15637;SDS011;26604;53.596;10.042;2022-07-15T13:00:00;1.83;;;0.77;;
15637;SDS011;26604;53.596;10.042;2022-07-15T13:02:31;2.78;;;0.65;;
15637;SDS011;26604;53.596;10.042;2022-07-15T13:04:58;3.42;;;0.70;;
15637;SDS011;26604;53.596;10.042;2022-07-15T13:07:25;5.35;;;1.10;;
15637;SDS011;26604;53.596;10.042;2022-07-15T13:09:52;4.78;;;0.90;;
15637;SDS011;26604;53.596;10.042;2022-07-15T13:12:19;10.13;;;1.10;;
15637;SDS011;26604;53.596;10.042;2022-07-15T13:14:46;4.95;;;0.80;;
15637;SDS011;26604;53.596;10.042;2022-07-15T13:17:14;4.63;;;0.80;;
15637;SDS011;26604;53.596;10.042;2022-07-15T13:19:41;3.13;;;0.77;;
15637;SDS011;26604;53.596;10.042;2022-07-15T13:22:08;5.35;;;0.70;;
15637;SDS011;26604;53.596;10.042;2022-07-15T13:24:35;4.45;;;0.80;;
15637;SDS011;26604;53.596;10.042;2022-07-15T13:27:02;5.45;;;0.98;;
15637;SDS011;26604;53.596;10.042;2022-07-15T13:29:29;8.43;;;0.75;;
15637;SDS011;26604;53.596;10.042;2022-07-15T13:31:56;3.88;;;0.60;;
15637;SDS011;26604;53.596;10.042;2022-07-15T13:34:24;7.47;;;0.73;;
15637;SDS011;26604;53.596;10.042;2022-07-15T13:36:51;4.43;;;0.70;;
15637;SDS011;26604;53.596;10.042;2022-07-15T13:39:18;1.55;;;0.50;;
15637;SDS011;26604;53.596;10.042;2022-07-15T13:41:45;2.22;;;0.68;;
15637;SDS011;26604;53.596;10.042;2022-07-15T13:44:12;3.63;;;0.60;;
15637;SDS011;26604;53.596;10.042;2022-07-15T13:46:39;6.75;;;0.82;;
15637;SDS011;26604;53.596;10.042;2022-07-15T13:49:06;4.00;;;0.80;;
15637;SDS011;26604;53.596;10.042;2022-07-15T13:51:35;2.83;;;0.43;;
15637;SDS011;26604;53.596;10.042;2022-07-15T13:54:01;2.47;;;0.45;;
15637;SDS011;26604;53.596;10.042;2022-07-15T13:56:28;5.65;;;0.43;;
15637;SDS011;26604;53.596;10.042;2022-07-15T13:58:55;2.78;;;0.45;;
15637;SDS011;26604;53.596;10.042;2022-07-15T14:01:24;4.30;;;0.80;;
15637;SDS011;26604;53.596;10.042;2022-07-15T14:03:52;2.15;;;0.50;;
15637;SDS011;26604;53.596;10.042;2022-07-15T14:06:19;5.65;;;0.55;;
15637;SDS011;26604;53.596;10.042;2022-07-15T14:08:48;2.30;;;0.60;;
15637;SDS011;26604;53.596;10.042;2022-07-15T14:11:15;3.58;;;0.43;;
15637;SDS011;26604;53.596;10.042;2022-07-15T14:13:43;1.92;;;0.57;;
15637;SDS011;26604;53.596;10.042;2022-07-15T14:16:10;1.63;;;0.50;;
15637;SDS011;26604;53.596;10.042;2022-07-15T14:18:37;3.25;;;0.70;;
15637;SDS011;26604;53.596;10.042;2022-07-15T14:21:12;4.13;;;0.52;;
15637;SDS011;26604;53.596;10.042;2022-07-15T14:23:40;6.15;;;0.80;;
15637;SDS011;26604;53.596;10.042;2022-07-15T14:26:09;2.22;;;0.40;;
15637;SDS011;26604;53.596;10.042;2022-07-15T14:28:36;2.13;;;0.57;;
15637;SDS011;26604;53.596;10.042;2022-07-15T14:31:04;4.80;;;0.80;;
15637;SDS011;26604;53.596;10.042;2022-07-15T14:33:31;2.55;;;0.63;;
15637;SDS011;26604;53.596;10.042;2022-07-15T14:35:58;0.52;;;0.30;;
15637;SDS011;26604;53.596;10.042;2022-07-15T14:38:26;2.20;;;0.52;;
15637;SDS011;26604;53.596;10.042;2022-07-15T14:40:53;2.58;;;0.57;;
15637;SDS011;26604;53.596;10.042;2022-07-15T14:43:21;3.13;;;0.47;;
15637;SDS011;26604;53.596;10.042;2022-07-15T14:45:48;2.80;;;0.50;;
15637;SDS011;26604;53.596;10.042;2022-07-15T14:48:15;3.08;;;0.50;;
15637;SDS011;26604;53.596;10.042;2022-07-15T14:50:42;5.30;;;0.60;;
15637;SDS011;26604;53.596;10.042;2022-07-15T14:53:09;3.00;;;0.63;;
15637;SDS011;26604;53.596;10.042;2022-07-15T14:55:36;2.88;;;0.60;;
15637;SDS011;26604;53.596;10.042;2022-07-15T14:58:03;5.47;;;1.30;;